Time;durP1;ratioP1;P1;durP2;ratioP2;P2;SDS_P1;SDS_P2;PMS_P1;PMS_P2;Temp;Humidity;BMP_temperature;BMP_pressure;BME280_temperature;BME280_humidity;BME280_pressure;Samples;Min_cycle;Max_cycle;Signal;HPM_P1;HPM_P2
2023/07/03 00:02:20;;;;;;;6.30;3.00;;;21.00;99.90;;;;;;5009230;28;20049;-55
2023/07/03 00:05:24;;;;;;;4.43;2.65;;;21.00;99.90;;;;;;5010911;28;20029;-51
2023/07/03 00:08:28;;;;;;;5.40;3.33;;;21.00;99.90;;;;;;5012855;28;20045;-54
2023/07/03 00:11:33;;;;;;;10.18;3.08;;;21.00;99.90;;;;;;5012985;28;20041;-54
2023/07/03 00:14:38;;;;;;;9.10;3.80;;;21.00;99.90;;;;;;5013054;28;20117;-51
2023/07/03 00:17:45;;;;;;;9.88;3.13;;;21.00;99.90;;;;;;5013218;28;20045;-53
2023/07/03 00:20:54;;;;;;;7.35;3.15;;;21.00;99.90;;;;;;5012536;28;20061;-55
2023/07/03 00:23:58;;;;;;;6.07;3.17;;;21.00;99.90;;;;;;5013012;28;20118;-54
2023/07/03 00:27:03;;;;;;;6.93;2.97;;;21.00;99.90;;;;;;5012833;28;20045;-52
2023/07/03 00:30:07;;;;;;;6.72;3.45;;;21.00;99.90;;;;;;5012657;28;20053;-51
2023/07/03 00:33:15;;;;;;;7.32;2.90;;;20.90;99.90;;;;;;5012577;28;20048;-54
2023/07/03 00:36:21;;;;;;;6.00;2.90;;;20.90;99.90;;;;;;5000609;28;20053;-53
2023/07/03 00:39:25;;;;;;;4.57;2.97;;;20.90;99.90;;;;;;5012386;28;20049;-51
2023/07/03 00:42:30;;;;;;;6.15;3.35;;;20.90;99.90;;;;;;5012513;28;20053;-54
2023/07/03 00:45:36;;;;;;;9.35;2.90;;;20.90;99.90;;;;;;5012643;28;20041;-51
2023/07/03 00:48:41;;;;;;;6.80;3.63;;;20.90;99.90;;;;;;5012449;28;20053;-51
2023/07/03 00:51:49;;;;;;;6.30;3.42;;;20.80;99.90;;;;;;5012154;28;20049;-53
2023/07/03 00:54:54;;;;;;;5.60;3.22;;;20.80;99.90;;;;;;5000123;28;20424;-51
2023/07/03 00:57:58;;;;;;;7.50;3.50;;;20.80;99.90;;;;;;5012558;28;20053;-54
2023/07/03 01:01:34;;;;;;;8.02;3.28;;;20.80;99.90;;;;;;5012242;28;20084;-55
2023/07/03 01:04:51;;;;;;;5.90;3.15;;;20.80;99.90;;;;;;5012423;28;20400;-52
2023/07/03 01:07:57;;;;;;;7.72;3.10;;;20.80;99.90;;;;;;5000071;28;20048;-51
2023/07/03 01:11:01;;;;;;;9.23;3.75;;;20.90;99.90;;;;;;5011822;28;20052;-53
2023/07/03 01:14:07;;;;;;;6.72;3.67;;;20.80;99.90;;;;;;5011975;28;20416;-51
2023/07/03 01:17:14;;;;;;;8.18;3.95;;;20.80;99.90;;;;;;5011573;28;20125;-52
2023/07/03 01:20:20;;;;;;;7.60;3.67;;;20.80;99.90;;;;;;4988345;28;20057;-54
2023/07/03 01:23:33;;;;;;;6.10;3.15;;;20.80;99.90;;;;;;4999674;28;20045;-51
2023/07/03 01:26:42;;;;;;;9.80;3.50;;;20.80;99.90;;;;;;5000105;28;20049;-50
2023/07/03 01:29:57;;;;;;;12.23;3.90;;;20.70;99.90;;;;;;4999495;28;20049;-55
2023/07/03 01:33:03;;;;;;;10.23;3.72;;;20.70;99.90;;;;;;4999572;28;20049;-53
2023/07/03 01:36:11;;;;;;;8.07;3.65;;;20.70;99.90;;;;;;5011760;28;20053;-51
2023/07/03 01:39:16;;;;;;;9.05;3.55;;;20.60;99.90;;;;;;5011267;28;20049;-55
2023/07/03 01:42:23;;;;;;;6.90;3.55;;;20.50;99.90;;;;;;5011366;28;20048;-53
2023/07/03 01:45:27;;;;;;;5.80;3.15;;;20.50;99.90;;;;;;5011370;28;20052;-51
2023/07/03 01:48:32;;;;;;;8.40;3.80;;;20.50;99.90;;;;;;5011507;28;20212;-55
2023/07/03 01:52:07;;;;;;;7.60;4.38;;;20.40;99.90;;;;;;4998694;28;20057;-53
2023/07/03 01:55:32;;;;;;;7.15;3.88;;;20.20;99.90;;;;;;4999191;28;20626;-51
2023/07/03 01:58:50;;;;;;;7.65;3.55;;;19.80;99.90;;;;;;5011133;28;20053;-52
2023/07/03 02:02:11;;;;;;;10.35;3.65;;;19.70;99.90;;;;;;4998846;28;20421;-52
2023/07/03 02:05:23;;;;;;;6.65;3.35;;;19.60;99.90;;;;;;5011162;28;20041;-53
2023/07/03 02:08:27;;;;;;;;;;;19.60;99.90;;;;;;5011479;28;20038;-53
2023/07/03 02:11:31;;;;;;;9.25;3.78;;;19.50;99.90;;;;;;5010585;28;19916;-52
2023/07/03 02:14:35;;;;;;;10.77;3.17;;;19.50;99.90;;;;;;4999026;28;20045;-55
2023/07/03 02:17:41;;;;;;;4.90;2.88;;;19.50;99.90;;;;;;4998835;28;20041;-52
2023/07/03 02:20:45;;;;;;;7.25;2.95;;;19.50;99.90;;;;;;5010306;28;20110;-51
2023/07/03 02:23:50;;;;;;;7.07;3.20;;;19.40;99.90;;;;;;5010811;28;20048;-51
2023/07/03 02:26:54;;;;;;;7.53;3.00;;;19.30;99.90;;;;;;4998440;28;20049;-51
2023/07/03 02:29:58;;;;;;;9.00;3.13;;;19.40;99.90;;;;;;5009552;28;20053;-51
2023/07/03 02:33:02;;;;;;;6.47;3.30;;;19.40;99.90;;;;;;5010529;28;20122;-52
2023/07/03 02:36:07;;;;;;;6.90;3.30;;;19.40;99.90;;;;;;4998430;28;20037;-51
2023/07/03 02:39:12;;;;;;;6.30;3.70;;;19.40;99.90;;;;;;5010557;28;20065;-53
2023/07/03 02:42:16;;;;;;;8.80;3.90;;;19.30;99.90;;;;;;5010148;28;20041;-54
2023/07/03 02:45:20;;;;;;;5.35;3.55;;;19.20;99.90;;;;;;4998338;28;20049;-52
2023/07/03 02:48:25;;;;;;;11.30;3.47;;;19.10;99.90;;;;;;4998449;28;20053;-51
2023/07/03 02:51:29;;;;;;;8.68;3.42;;;19.10;99.90;;;;;;4997421;28;20052;-50
2023/07/03 02:54:37;;;;;;;6.32;4.13;;;19.00;99.90;;;;;;4998329;28;20049;-51
2023/07/03 02:57:42;;;;;;;10.55;4.13;;;18.90;99.90;;;;;;4998291;28;20049;-52
2023/07/03 03:00:46;;;;;;;9.27;4.18;;;18.90;99.90;;;;;;4997904;28;20049;-52
2023/07/03 03:03:51;;;;;;;12.68;4.25;;;18.80;99.90;;;;;;4998064;28;20042;-52
2023/07/03 03:06:55;;;;;;;7.82;4.00;;;18.70;99.90;;;;;;4998132;28;20056;-51
2023/07/03 03:09:59;;;;;;;7.78;3.95;;;18.60;99.90;;;;;;5010224;28;20052;-51
2023/07/03 03:13:04;;;;;;;12.13;4.65;;;18.50;99.90;;;;;;4998110;28;20056;-51
2023/07/03 03:16:08;;;;;;;7.43;4.13;;;18.50;99.90;;;;;;4998156;28;20052;-51
2023/07/03 03:19:13;;;;;;;8.52;4.28;;;18.40;99.90;;;;;;5010358;28;20056;-50
2023/07/03 03:22:17;;;;;;;7.00;4.05;;;18.30;99.90;;;;;;4997806;28;20041;-50
2023/07/03 03:25:21;;;;;;;9.65;4.35;;;18.30;99.90;;;;;;4998073;28;20413;-51
2023/07/03 03:28:26;;;;;;;6.35;4.15;;;18.30;99.90;;;;;;5010236;28;20432;-51
2023/07/03 03:31:30;;;;;;;10.13;4.10;;;18.30;99.90;;;;;;5009735;28;20428;-54
2023/07/03 03:34:38;;;;;;;9.57;3.83;;;18.30;99.90;;;;;;4998192;28;20393;-51
2023/07/03 03:37:42;;;;;;;9.38;4.45;;;18.30;99.90;;;;;;5010022;28;20049;-51
2023/07/03 03:40:58;;;;;;;10.63;4.30;;;18.20;99.90;;;;;;4999948;28;20048;-52
2023/07/03 03:44:06;;;;;;;7.70;4.35;;;18.20;99.90;;;;;;5001963;28;20048;-51
2023/07/03 03:47:10;;;;;;;8.52;4.65;;;18.10;99.90;;;;;;5001679;28;20053;-51
2023/07/03 03:50:14;;;;;;;11.88;4.65;;;18.10;99.90;;;;;;5001613;28;20053;-55
2023/07/03 03:53:19;;;;;;;7.85;4.85;;;18.10;99.90;;;;;;5001230;28;20061;-52
2023/07/03 03:56:23;;;;;;;13.95;4.97;;;18.20;99.90;;;;;;5001304;28;20409;-51
2023/07/03 03:59:27;;;;;;;13.93;4.40;;;18.20;99.90;;;;;;5013107;28;20049;-55
2023/07/03 04:02:31;;;;;;;10.25;4.93;;;18.30;99.90;;;;;;5000847;28;20092;-54
2023/07/03 04:05:36;;;;;;;9.05;4.65;;;18.40;99.90;;;;;;5001156;28;20052;-55
2023/07/03 04:08:39;;;;;;;11.68;5.05;;;18.50;99.90;;;;;;5013206;28;20045;-52
2023/07/03 04:11:43;;;;;;;11.25;4.55;;;18.60;99.90;;;;;;5012689;28;20049;-57
2023/07/03 04:14:47;;;;;;;9.90;4.50;;;18.80;99.90;;;;;;5013102;28;20065;-55
2023/07/03 04:17:51;;;;;;;8.00;4.45;;;18.90;99.90;;;;;;5012943;28;20037;-55
2023/07/03 04:20:55;;;;;;;11.52;4.88;;;19.10;99.90;;;;;;5012668;28;20052;-52
2023/07/03 04:23:59;;;;;;;7.10;4.60;;;19.30;99.90;;;;;;5012973;28;20053;-54
2023/07/03 04:27:03;;;;;;;7.22;3.60;;;19.40;99.90;;;;;;5012875;28;20045;-53
2023/07/03 04:30:08;;;;;;;6.38;3.88;;;19.60;99.90;;;;;;5012519;28;20057;-52
2023/07/03 04:33:12;;;;;;;10.27;5.22;;;19.70;99.90;;;;;;5011075;28;20065;-55
2023/07/03 04:36:23;;;;;;;9.02;4.32;;;19.80;99.90;;;;;;5013127;28;20049;-55
2023/07/03 04:39:26;;;;;;;8.75;4.60;;;19.90;99.90;;;;;;5012636;28;20049;-54
2023/07/03 04:42:31;;;;;;;10.15;4.20;;;20.30;99.90;;;;;;5012026;28;20041;-51
2023/07/03 04:45:47;;;;;;;12.45;4.30;;;21.40;99.90;;;;;;5012578;28;20033;-55
2023/07/03 04:48:52;;;;;;;10.20;4.78;;;21.70;99.90;;;;;;5012436;28;20041;-53
2023/07/03 04:51:56;;;;;;;6.22;3.95;;;21.40;99.90;;;;;;5011470;28;20068;-54
2023/07/03 04:54:59;;;;;;;8.48;4.47;;;21.10;99.90;;;;;;5012654;28;20060;-53
2023/07/03 04:58:04;;;;;;;11.77;5.15;;;20.80;99.90;;;;;;5012182;28;20053;-52
2023/07/03 05:01:11;;;;;;;13.93;5.00;;;20.70;99.90;;;;;;5012166;28;20056;-51
2023/07/03 05:04:15;;;;;;;11.63;4.80;;;20.50;99.90;;;;;;5012049;28;20045;-52
2023/07/03 05:07:21;;;;;;;81.80;9.98;;;20.30;99.90;;;;;;5012619;28;20073;-54
2023/07/03 05:10:25;;;;;;;59.60;8.52;;;20.30;99.90;;;;;;5012405;28;20052;-52
2023/07/03 05:13:29;;;;;;;31.02;6.07;;;20.20;99.90;;;;;;5011586;28;20551;-54
2023/07/03 05:16:33;;;;;;;26.35;6.05;;;20.10;99.90;;;;;;5012009;28;20126;-52
2023/07/03 05:19:37;;;;;;;11.73;4.85;;;19.90;99.90;;;;;;5011946;28;20329;-54
2023/07/03 05:22:43;;;;;;;11.05;4.35;;;21.40;99.90;;;;;;5011735;28;20048;-52
2023/07/03 05:25:47;;;;;;;9.32;4.60;;;23.70;99.90;;;;;;5011712;28;20044;-51
2023/07/03 05:28:51;;;;;;;9.00;4.57;;;22.80;99.90;;;;;;5011985;28;20049;-51
2023/07/03 05:31:55;;;;;;;11.15;4.47;;;23.90;99.90;;;;;;5011704;28;20049;-55
2023/07/03 05:35:02;;;;;;;9.10;4.22;;;25.00;99.90;;;;;;5011738;28;20056;-52
2023/07/03 05:38:06;;;;;;;11.90;4.32;;;25.20;99.90;;;;;;5011711;28;20052;-54
2023/07/03 05:41:10;;;;;;;8.55;3.78;;;27.00;99.90;;;;;;5011140;28;20068;-52
2023/07/03 05:44:14;;;;;;;13.48;3.97;;;27.20;99.90;;;;;;5011406;28;20508;-53
2023/07/03 05:47:18;;;;;;;7.15;4.15;;;27.40;99.90;;;;;;5011536;28;20041;-55
2023/07/03 05:50:23;;;;;;;8.07;4.25;;;26.60;99.90;;;;;;5011222;28;20069;-54
2023/07/03 05:53:26;;;;;;;15.85;4.00;;;26.20;99.90;;;;;;5011136;28;20057;-53
2023/07/03 05:56:30;;;;;;;8.75;4.03;;;25.80;99.90;;;;;;5014686;28;20507;-53
2023/07/03 05:59:35;;;;;;;10.63;4.15;;;25.80;99.90;;;;;;5026600;28;20048;-51
2023/07/03 06:02:41;;;;;;;7.88;4.45;;;25.30;99.90;;;;;;5028752;28;20056;-52
2023/07/03 06:05:45;;;;;;;11.32;4.47;;;24.50;99.90;;;;;;5032367;28;20407;-50
2023/07/03 06:08:50;;;;;;;10.88;3.97;;;25.70;99.90;;;;;;5036023;28;20048;-51
2023/07/03 06:11:55;;;;;;;7.68;3.95;;;25.70;99.90;;;;;;5026318;28;20511;-51
2023/07/03 06:15:00;;;;;;;10.38;4.30;;;26.70;99.90;;;;;;5028729;28;20073;-55
2023/07/03 06:18:05;;;;;;;6.53;3.70;;;27.90;99.90;;;;;;5036292;28;20232;-53
2023/07/03 06:21:09;;;;;;;9.70;3.90;;;28.20;99.90;;;;;;5035901;28;20447;-52
2023/07/03 06:24:13;;;;;;;9.13;4.53;;;29.30;99.90;;;;;;5040495;28;20036;-52
2023/07/03 06:27:17;;;;;;;9.43;4.07;;;28.90;99.90;;;;;;5035806;28;20044;-52
2023/07/03 06:30:21;;;;;;;10.25;3.90;;;29.10;99.90;;;;;;5040110;28;20518;-52
2023/07/03 06:33:25;;;;;;;10.50;4.40;;;28.00;99.90;;;;;;5028946;28;20060;-52
2023/07/03 06:36:31;;;;;;;8.85;4.30;;;27.80;99.90;;;;;;5022648;28;20048;-56
2023/07/03 06:39:38;;;;;;;15.00;4.32;;;27.50;99.90;;;;;;5037605;28;20415;-51
2023/07/03 06:42:43;;;;;;;9.68;4.43;;;28.10;99.90;;;;;;5035282;28;20795;-55
2023/07/03 06:45:53;;;;;;;;;;;27.80;99.90;;;;;;5018104;28;20044;-54
2023/07/03 06:48:58;;;;;;;11.38;4.63;;;26.70;99.90;;;;;;5021753;28;19916;-53
2023/07/03 06:52:02;;;;;;;13.38;5.78;;;26.60;99.90;;;;;;5038081;28;20048;-55
2023/07/03 06:55:06;;;;;;;13.68;4.47;;;27.10;99.90;;;;;;5049738;28;20518;-52
2023/07/03 06:58:09;;;;;;;9.75;4.65;;;27.30;99.90;;;;;;5039908;28;20056;-54
2023/07/03 07:01:14;;;;;;;12.75;5.60;;;28.80;99.90;;;;;;5025546;28;20064;-55
2023/07/03 07:04:18;;;;;;;9.88;5.20;;;29.40;99.90;;;;;;5048564;28;20384;-52
2023/07/03 07:07:22;;;;;;;9.50;5.13;;;30.60;99.90;;;;;;5042729;28;20039;-54
2023/07/03 07:10:26;;;;;;;12.40;4.90;;;29.80;99.90;;;;;;5029103;28;20048;-55
2023/07/03 07:13:30;;;;;;;9.68;4.70;;;30.40;99.90;;;;;;5030623;28;20764;-52
2023/07/03 07:16:36;;;;;;;10.27;5.05;;;31.30;99.90;;;;;;5033795;28;20044;-51
2023/07/03 07:19:40;;;;;;;12.00;4.82;;;31.80;99.90;;;;;;5010107;28;20056;-52
2023/07/03 07:22:44;;;;;;;9.23;5.28;;;31.90;99.90;;;;;;5034249;28;20498;-52
2023/07/03 07:25:54;;;;;;;17.45;5.28;;;32.80;99.90;;;;;;5032976;28;20048;-54
2023/07/03 07:28:59;;;;;;;11.77;4.97;;;32.40;99.90;;;;;;5050013;28;20044;-52
2023/07/03 07:32:03;;;;;;;11.90;5.57;;;31.80;99.90;;;;;;5045770;28;20036;-53
2023/07/03 07:35:08;;;;;;;13.65;5.80;;;32.20;99.90;;;;;;5035280;28;20519;-52
2023/07/03 07:38:13;;;;;;;12.27;5.78;;;33.30;99.90;;;;;;5041458;28;20047;-51
2023/07/03 07:41:17;;;;;;;10.63;4.78;;;33.10;99.90;;;;;;5049396;28;20040;-52
2023/07/03 07:44:20;;;;;;;12.40;5.28;;;33.90;99.90;;;;;;5049293;28;20052;-53
2023/07/03 07:47:24;;;;;;;12.73;5.55;;;33.30;99.90;;;;;;5024524;28;20052;-52
2023/07/03 07:50:29;;;;;;;9.40;5.50;;;31.10;99.90;;;;;;5030696;28;20511;-52
2023/07/03 07:53:33;;;;;;;11.13;5.53;;;31.60;99.90;;;;;;5029556;28;20048;-51
2023/07/03 07:56:37;;;;;;;13.10;6.70;;;31.20;99.90;;;;;;5029631;28;20056;-51
2023/07/03 07:59:41;;;;;;;11.80;5.75;;;32.70;99.90;;;;;;5027632;28;20044;-53
2023/07/03 08:02:45;;;;;;;13.77;5.85;;;32.90;99.90;;;;;;5031202;28;20048;-55
2023/07/03 08:05:49;;;;;;;12.43;6.20;;;32.60;99.90;;;;;;5035242;28;20044;-51
2023/07/03 08:08:53;;;;;;;14.48;6.88;;;31.10;99.90;;;;;;5032204;28;20036;-52
2023/07/03 08:12:00;;;;;;;13.80;6.22;;;31.70;99.90;;;;;;5039671;28;20052;-51
2023/07/03 08:15:05;;;;;;;17.17;6.38;;;31.70;99.90;;;;;;5032465;28;20044;-53
2023/07/03 08:18:09;;;;;;;13.23;6.55;;;33.70;99.90;;;;;;5036944;28;20053;-54
2023/07/03 08:21:13;;;;;;;12.20;6.63;;;33.40;99.90;;;;;;5034803;28;20048;-52
2023/07/03 08:24:17;;;;;;;12.77;6.60;;;30.60;99.90;;;;;;5015831;28;20060;-53
2023/07/03 08:27:21;;;;;;;10.63;6.45;;;32.40;99.90;;;;;;5040098;28;20044;-52
2023/07/03 08:30:25;;;;;;;14.63;5.32;;;33.00;99.90;;;;;;5028498;28;20045;-52
2023/07/03 08:33:30;;;;;;;14.43;6.90;;;34.60;99.90;;;;;;5025297;28;20056;-52
2023/07/03 08:36:34;;;;;;;12.38;5.80;;;32.60;99.90;;;;;;5028535;28;20399;-61
2023/07/03 08:39:39;;;;;;;10.00;5.72;;;32.90;99.90;;;;;;5030135;28;20044;-55
2023/07/03 08:42:51;;;;;;;10.80;5.22;;;33.90;99.90;;;;;;5034849;28;20072;-55
2023/07/03 08:45:54;;;;;;;12.48;5.40;;;32.90;99.90;;;;;;5030947;28;20523;-53
2023/07/03 08:49:03;;;;;;;12.40;5.68;;;34.20;98.80;;;;;;5039072;28;20052;-55
2023/07/03 08:52:08;;;;;;;10.85;5.10;;;34.00;99.90;;;;;;5036796;28;20060;-52
2023/07/03 08:55:20;;;;;;;9.43;5.10;;;32.80;99.90;;;;;;5023891;28;20523;-55
2023/07/03 08:58:24;;;;;;;11.38;5.20;;;33.20;99.80;;;;;;5022922;28;20511;-54
2023/07/03 09:01:53;;;;;;;12.65;5.43;;;35.00;98.30;;;;;;5028215;28;20121;-53
2023/07/03 09:05:08;;;;;;;10.20;5.47;;;36.70;97.80;;;;;;5029969;28;20519;-52
2023/07/03 09:08:22;;;;;;;8.25;4.85;;;37.60;96.60;;;;;;5030302;28;20045;-53
2023/07/03 09:11:30;;;;;;;8.52;4.97;;;38.00;95.70;;;;;;5027063;28;20045;-55
2023/07/03 09:14:40;;;;;;;10.68;4.90;;;39.40;94.40;;;;;;5029008;28;20126;-52
2023/07/03 09:17:45;;;;;;;;;;;39.40;94.00;;;;;;5025918;28;20064;-52
2023/07/03 09:20:49;;;;;;;12.25;5.07;;;38.30;93.00;;;;;;5028534;28;19920;-52
2023/07/03 09:24:00;;;;;;;6.38;4.00;;;38.40;94.00;;;;;;5032599;28;20988;-53
2023/07/03 09:27:21;;;;;;;7.88;4.60;;;39.00;93.50;;;;;;5022443;28;20037;-55
2023/07/03 09:30:25;;;;;;;10.20;4.82;;;41.00;92.20;;;;;;5012367;28;20036;-52
2023/07/03 09:33:29;;;;;;;8.73;4.85;;;40.80;92.70;;;;;;5039633;28;20048;-52
2023/07/03 09:36:36;;;;;;;6.75;4.00;;;39.50;92.80;;;;;;5032995;28;20048;-53
2023/07/03 09:39:40;;;;;;;8.35;4.82;;;40.90;92.90;;;;;;5029399;28;20045;-52
2023/07/03 09:42:44;;;;;;;9.80;4.55;;;43.20;90.10;;;;;;5018522;28;20056;-54
2023/07/03 09:45:50;;;;;;;8.18;3.80;;;41.00;89.50;;;;;;5025952;28;20053;-55
2023/07/03 09:48:54;;;;;;;6.65;3.90;;;42.40;90.50;;;;;;5029400;28;20045;-52
2023/07/03 09:52:00;;;;;;;8.00;4.03;;;44.20;88.50;;;;;;5022245;28;20495;-54
2023/07/03 09:55:04;;;;;;;8.10;3.85;;;44.30;87.90;;;;;;5025502;28;20044;-53
2023/07/03 09:58:14;;;;;;;5.07;3.63;;;44.90;86.90;;;;;;5030111;28;20060;-56
2023/07/03 10:01:23;;;;;;;5.70;3.97;;;45.40;83.80;;;;;;5025731;28;20436;-53
2023/07/03 10:04:31;;;;;;;6.18;3.65;;;43.70;82.80;;;;;;5026977;28;20044;-54
2023/07/03 10:07:42;;;;;;;7.03;3.88;;;44.00;83.40;;;;;;5027268;28;20067;-54
2023/07/03 10:10:46;;;;;;;7.13;4.05;;;42.60;84.30;;;;;;5028535;28;20068;-55
2023/07/03 10:13:51;;;;;;;6.65;4.00;;;44.30;83.70;;;;;;5029856;28;20052;-54
2023/07/03 10:16:56;;;;;;;6.72;4.13;;;41.80;85.20;;;;;;5026426;28;20515;-52
2023/07/03 10:20:08;;;;;;;5.00;3.50;;;42.80;84.90;;;;;;5025819;28;20510;-55
2023/07/03 10:23:18;;;;;;;6.32;3.80;;;44.10;81.70;;;;;;5013997;28;20048;-54
2023/07/03 10:26:28;;;;;;;7.95;4.10;;;43.20;81.80;;;;;;5025578;28;20040;-55
2023/07/03 10:29:38;;;;;;;6.05;4.22;;;43.80;82.10;;;;;;5026937;28;20048;-52
2023/07/03 10:32:48;;;;;;;6.95;3.80;;;44.40;81.70;;;;;;5021081;28;20613;-52
2023/07/03 10:35:53;;;;;;;6.03;4.00;;;40.70;83.50;;;;;;5021612;28;20040;-54
2023/07/03 10:39:13;;;;;;;7.82;4.30;;;36.30;88.10;;;;;;5025365;28;20052;-52
2023/07/03 10:42:32;;;;;;;6.20;4.10;;;38.50;88.00;;;;;;5020547;28;20057;-56
2023/07/03 10:45:38;;;;;;;7.03;4.13;;;40.20;86.40;;;;;;5023139;28;20045;-51
2023/07/03 10:48:43;;;;;;;9.75;4.47;;;42.30;83.80;;;;;;5022619;28;20053;-51
2023/07/03 10:51:55;;;;;;;7.18;3.80;;;41.90;85.70;;;;;;5013236;28;20053;-55
2023/07/03 10:55:15;;;;;;;6.03;3.75;;;40.30;84.50;;;;;;5025002;28;20603;-56
2023/07/03 10:59:01;;;;;;;6.97;4.22;;;41.50;82.10;;;;;;5031442;28;20040;-54
2023/07/03 11:02:05;;;;;;;7.45;4.53;;;42.30;81.40;;;;;;5026735;28;20048;-54
2023/07/03 11:05:34;;;;;;;7.35;4.82;;;36.30;87.70;;;;;;5035485;28;20052;-54
2023/07/03 11:09:00;;;;;;;14.27;5.55;;;38.60;87.50;;;;;;5027868;28;20511;-56
2023/07/03 11:12:19;;;;;;;11.93;4.78;;;37.10;88.80;;;;;;5036395;28;20431;-53
2023/07/03 11:15:55;;;;;;;7.55;4.70;;;36.30;90.30;;;;;;5020999;28;20052;-53
2023/07/03 11:19:14;;;;;;;6.65;4.75;;;36.70;90.40;;;;;;5030628;28;20535;-51
2023/07/03 11:22:24;;;;;;;9.05;4.25;;;37.30;90.90;;;;;;5038288;28;20068;-52
2023/07/03 11:25:29;;;;;;;;;;;36.90;90.20;;;;;;5020397;28;20044;-54
2023/07/03 11:28:37;;;;;;;8.25;4.40;;;35.80;92.00;;;;;;5021083;28;19924;-52
2023/07/03 11:31:43;;;;;;;8.13;4.60;;;35.50;92.20;;;;;;5025407;28;20046;-51
2023/07/03 11:34:48;;;;;;;14.77;4.47;;;35.30;92.70;;;;;;5023760;28;20539;-52
2023/07/03 11:38:04;;;;;;;7.80;4.85;;;36.50;92.10;;;;;;5030818;28;20113;-51
2023/07/03 11:41:09;;;;;;;9.73;5.72;;;35.60;90.60;;;;;;5035078;28;20037;-56
2023/07/03 11:44:19;;;;;;;9.02;5.22;;;34.70;91.80;;;;;;5028246;28;20180;-51
2023/07/03 11:47:25;;;;;;;11.65;5.03;;;34.30;92.70;;;;;;5028603;28;20044;-52
2023/07/03 11:50:33;;;;;;;9.25;5.45;;;33.90;93.40;;;;;;5022598;28;20041;-53
2023/07/03 11:53:47;;;;;;;14.77;5.35;;;32.40;95.00;;;;;;5025229;28;20045;-51
2023/07/03 11:57:01;;;;;;;13.30;5.18;;;31.40;96.30;;;;;;5014622;28;20052;-54
2023/07/03 12:00:15;;;;;;;8.88;5.32;;;31.40;96.90;;;;;;5032841;28;20042;-52
2023/07/03 12:03:49;;;;;;;10.10;5.68;;;31.20;97.70;;;;;;5028278;28;20052;-54
2023/07/03 12:06:53;;;;;;;10.98;5.80;;;31.00;99.00;;;;;;5030515;28;20072;-54
2023/07/03 12:10:19;;;;;;;11.60;5.63;;;30.90;99.30;;;;;;5032324;28;20049;-54
2023/07/03 12:13:35;;;;;;;8.10;5.45;;;31.00;99.60;;;;;;5020401;28;20037;-50
2023/07/03 12:16:44;;;;;;;9.98;5.40;;;30.50;99.90;;;;;;5040605;28;20040;-55
2023/07/03 12:19:54;;;;;;;7.90;5.10;;;30.40;99.00;;;;;;5031297;28;20041;-54
2023/07/03 12:22:58;;;;;;;9.90;5.07;;;30.70;99.20;;;;;;5028185;28;20049;-54
2023/07/03 12:26:13;;;;;;;8.02;5.55;;;30.60;99.30;;;;;;5032208;28;20060;-54
2023/07/03 12:29:19;;;;;;;12.70;5.93;;;31.50;99.90;;;;;;5023212;28;20120;-54
2023/07/03 12:32:35;;;;;;;13.77;5.65;;;32.10;99.20;;;;;;5028807;28;20056;-54
2023/07/03 12:35:43;;;;;;;11.13;6.43;;;32.30;99.10;;;;;;5023771;28;20048;-55
2023/07/03 12:38:47;;;;;;;9.00;5.80;;;32.60;98.20;;;;;;5021982;28;20052;-51
2023/07/03 12:41:51;;;;;;;9.32;5.80;;;33.50;96.10;;;;;;5026859;28;20052;-52
2023/07/03 12:45:24;;;;;;;10.07;5.50;;;34.00;96.90;;;;;;5034220;28;20049;-53
2023/07/03 12:48:28;;;;;;;12.80;5.32;;;34.80;96.10;;;;;;5020885;28;20040;-52
2023/07/03 12:51:46;;;;;;;8.77;5.40;;;34.40;95.70;;;;;;5017589;28;20049;-55
2023/07/03 12:54:51;;;;;;;9.80;5.55;;;34.20;96.10;;;;;;5025919;28;20052;-54
2023/07/03 12:57:55;;;;;;;14.00;6.18;;;33.90;96.20;;;;;;5024535;28;20053;-54
2023/07/03 13:01:02;;;;;;;10.68;5.60;;;33.80;97.30;;;;;;5018251;28;20067;-54
2023/07/03 13:04:06;;;;;;;8.90;5.22;;;33.30;97.20;;;;;;5022780;28;20053;-52
2023/07/03 13:07:12;;;;;;;9.32;5.68;;;33.10;97.60;;;;;;5022160;28;20033;-50
2023/07/03 13:10:18;;;;;;;10.57;6.03;;;33.60;96.90;;;;;;5024143;28;20056;-56
2023/07/03 13:13:23;;;;;;;10.23;6.35;;;33.70;95.60;;;;;;5027193;28;20056;-55
2023/07/03 13:16:30;;;;;;;10.73;5.20;;;33.80;96.20;;;;;;5033555;28;20040;-52
2023/07/03 13:19:36;;;;;;;8.05;5.00;;;34.10;95.70;;;;;;5020310;28;20068;-51
2023/07/03 13:22:49;;;;;;;9.10;4.82;;;34.70;94.90;;;;;;5023803;28;20049;-53
2023/07/03 13:25:55;;;;;;;8.85;4.88;;;34.80;94.80;;;;;;5015160;28;20045;-51
2023/07/03 13:29:01;;;;;;;9.15;4.97;;;34.90;93.50;;;;;;5028849;28;20040;-54
2023/07/03 13:32:17;;;;;;;9.02;5.28;;;34.10;94.20;;;;;;5026906;28;20041;-51
2023/07/03 13:35:27;;;;;;;8.57;5.07;;;34.00;94.80;;;;;;5012387;28;20048;-56
2023/07/03 13:38:31;;;;;;;7.55;4.82;;;33.80;95.60;;;;;;5028089;28;20036;-55
2023/07/03 13:41:37;;;;;;;8.18;5.82;;;33.60;95.20;;;;;;5029518;28;20056;-52
2023/07/03 13:44:41;;;;;;;7.82;4.95;;;33.20;95.20;;;;;;5033585;28;20045;-53
2023/07/03 13:47:45;;;;;;;11.70;5.63;;;32.70;96.20;;;;;;5008179;28;20040;-53
2023/07/03 13:50:52;;;;;;;11.10;5.55;;;32.10;96.60;;;;;;5023418;28;20048;-52
2023/07/03 13:53:57;;;;;;;8.55;5.10;;;32.00;97.40;;;;;;5025549;28;20040;-55
2023/07/03 13:57:03;;;;;;;9.75;5.30;;;32.00;97.50;;;;;;5026558;28;20040;-52
2023/07/03 14:00:08;;;;;;;9.60;5.60;;;32.00;97.20;;;;;;5026042;28;20056;-55
2023/07/03 14:03:15;;;;;;;10.57;4.97;;;31.50;96.40;;;;;;5019838;28;20108;-51
2023/07/03 14:06:20;;;;;;;12.98;5.40;;;32.00;97.20;;;;;;5024450;28;20033;-54
2023/07/03 14:09:24;;;;;;;6.82;4.88;;;31.80;96.30;;;;;;5023001;28;20044;-54
2023/07/03 14:12:28;;;;;;;7.63;4.53;;;32.20;96.80;;;;;;5022816;28;20412;-55
2023/07/03 14:15:35;;;;;;;8.18;4.88;;;32.60;96.60;;;;;;5021426;28;20506;-53
2023/07/03 14:18:39;;;;;;;8.65;5.00;;;32.20;95.80;;;;;;5022488;28;20041;-51
2023/07/03 14:21:44;;;;;;;10.77;5.45;;;31.80;96.70;;;;;;5023145;28;20401;-52
2023/07/03 14:24:49;;;;;;;7.05;5.20;;;32.10;96.90;;;;;;5024852;28;20041;-51
2023/07/03 14:27:53;;;;;;;8.35;5.22;;;32.70;96.50;;;;;;5017778;28;20424;-55
2023/07/03 14:30:57;;;;;;;9.30;4.75;;;33.10;96.50;;;;;;5022938;28;20052;-56
2023/07/03 14:34:01;;;;;;;7.40;4.68;;;33.60;95.70;;;;;;5022675;28;20116;-50
2023/07/03 14:37:04;;;;;;;9.05;5.47;;;33.90;94.90;;;;;;5027505;28;20064;-51
2023/07/03 14:40:11;;;;;;;8.90;5.20;;;33.70;94.80;;;;;;5036524;28;20044;-51
2023/07/03 14:43:15;;;;;;;10.15;4.80;;;33.20;96.00;;;;;;5026895;28;20515;-50
2023/07/03 14:46:18;;;;;;;8.80;4.63;;;32.50;97.00;;;;;;5030416;28;20028;-54
2023/07/03 14:49:22;;;;;;;11.95;4.93;;;32.80;96.10;;;;;;5021821;28;20048;-51
2023/07/03 14:52:47;;;;;;;9.35;4.80;;;31.80;95.80;;;;;;5029876;28;20056;-51
2023/07/03 14:55:55;;;;;;;8.00;4.55;;;31.80;96.20;;;;;;5025097;28;20527;-52
2023/07/03 14:59:01;;;;;;;7.93;4.75;;;31.70;96.20;;;;;;5026756;28;20057;-51
2023/07/03 15:02:07;;;;;;;7.10;5.00;;;31.90;96.60;;;;;;5038699;28;20058;-52
2023/07/03 15:05:11;;;;;;;8.55;5.18;;;32.20;96.90;;;;;;5029635;28;20128;-52
2023/07/03 15:08:15;;;;;;;7.40;4.43;;;31.90;95.80;;;;;;5040127;28;20199;-50
2023/07/03 15:11:19;;;;;;;8.20;4.75;;;32.40;96.30;;;;;;5028246;28;20056;-50
2023/07/03 15:14:23;;;;;;;7.13;4.80;;;32.40;95.60;;;;;;5018267;28;20523;-52
2023/07/03 15:17:27;;;;;;;8.02;5.05;;;32.00;95.60;;;;;;5020328;28;20416;-52
2023/07/03 15:20:32;;;;;;;7.47;4.60;;;31.90;95.80;;;;;;5022507;28;20060;-54
2023/07/03 15:23:36;;;;;;;6.28;4.55;;;31.70;96.90;;;;;;5009934;28;20045;-55
2023/07/03 15:26:40;;;;;;;8.52;4.50;;;31.60;96.50;;;;;;5010151;28;20065;-52
2023/07/03 15:29:46;;;;;;;7.53;4.47;;;31.60;97.00;;;;;;5009829;28;20794;-51
2023/07/03 15:32:53;;;;;;;8.32;5.18;;;31.40;97.90;;;;;;4997433;28;20053;-53
2023/07/03 15:36:00;;;;;;;8.05;4.85;;;31.30;97.40;;;;;;5010871;28;20425;-51
2023/07/03 15:39:04;;;;;;;12.40;4.55;;;31.30;97.20;;;;;;5013747;28;20060;-56
2023/07/03 15:42:09;;;;;;;7.50;5.15;;;31.30;97.10;;;;;;5013536;28;20045;-55
2023/07/03 15:45:13;;;;;;;6.63;4.55;;;31.00;97.60;;;;;;5013974;28;20053;-52
2023/07/03 15:48:17;;;;;;;7.45;5.30;;;31.00;97.60;;;;;;5013866;28;20401;-56
2023/07/03 15:51:21;;;;;;;9.77;4.68;;;30.80;97.80;;;;;;5013016;28;20452;-52
2023/07/03 15:54:25;;;;;;;7.35;5.05;;;30.70;97.70;;;;;;5013880;28;20053;-54
2023/07/03 15:57:28;;;;;;;8.88;5.28;;;29.70;97.90;;;;;;5013756;28;20833;-55
2023/07/03 16:00:32;;;;;;;8.50;4.68;;;29.70;98.40;;;;;;5013573;28;20049;-55
2023/07/03 16:03:37;;;;;;;7.50;5.57;;;29.20;98.90;;;;;;5013674;28;20052;-52
2023/07/03 16:06:41;;;;;;;6.28;4.50;;;28.40;99.90;;;;;;5013581;28;20044;-51
2023/07/03 16:09:45;;;;;;;11.13;5.25;;;28.50;99.90;;;;;;5013340;28;20401;-51